Time;durP1;ratioP1;P1;durP2;ratioP2;P2;SDS_P1;SDS_P2;PMS_P1;PMS_P2;Temp;Humidity;BMP_temperature;BMP_pressure;BME280_temperature;BME280_humidity;BME280_pressure;Samples;Min_cycle;Max_cycle;Signal;HPM_P1;HPM_P2
2021/10/02 00:36:19;;;;;;;;;6.00;6.00;;;;;16.09;69.20;101017.19;4987984;28;45577;-68
2021/10/02 00:46:57;;;;;;;;;5.75;5.75;;;;;15.99;69.84;101014.09;4969973;28;45535;-68
2021/10/02 00:49:23;;;;;;;;;10.75;6.75;;;;;15.94;69.41;100983.84;4961709;28;47354;-68
2021/10/02 00:51:49;;;;;;;;;9.00;6.00;;;;;16.03;69.61;101001.34;4982294;28;45431;-68
2021/10/02 00:54:14;;;;;;;;;7.00;6.25;;;;;15.95;69.43;100980.19;4981876;28;45394;-68
2021/10/02 00:56:42;;;;;;;;;8.00;6.75;;;;;15.93;69.63;100985.66;4981881;28;45248;-68
2021/10/02 00:59:07;;;;;;;;;7.00;6.00;;;;;15.97;69.61;100978.31;4981628;28;45660;-68
2021/10/02 01:01:56;;;;;;;;;8.50;8.50;;;;;16.21;69.59;101013.88;4981725;28;45839;-68
2021/10/02 01:04:38;;;;;;;;;5.00;5.00;;;;;16.07;69.73;100990.34;4981841;28;45434;-68
2021/10/02 01:07:28;;;;;;;;;5.50;5.50;;;;;16.18;69.43;101005.94;4981801;28;45228;-68
2021/10/02 01:10:13;;;;;;;;;7.00;7.00;;;;;16.20;69.55;101013.94;4966104;28;45434;-68
2021/10/02 01:13:05;;;;;;;;;7.75;6.50;;;;;16.00;69.85;100988.03;4979215;28;45563;-68
2021/10/02 01:15:37;;;;;;;;;7.50;6.50;;;;;16.17;69.69;101017.69;4981751;28;45291;-67
2021/10/02 01:18:11;;;;;;;;;6.00;6.00;;;;;16.18;69.75;101029.31;4980963;28;45399;-68
2021/10/02 01:21:03;;;;;;;;;9.25;7.00;;;;;16.18;69.74;101021.22;4981318;28;45405;-68
2021/10/02 01:23:58;;;;;;;;;7.00;6.25;;;;;16.01;69.48;100996.03;4963780;28;45572;-68
2021/10/02 01:27:02;;;;;;;;;6.00;6.00;;;;;16.18;69.73;101019.41;4961468;28;45477;-68
2021/10/02 01:29:33;;;;;;;;;7.50;6.50;;;;;15.98;69.87;100981.88;4971513;28;45288;-68
2021/10/02 01:32:14;;;;;;;;;7.00;5.25;;;;;16.01;69.79;100984.41;4981503;28;46443;-67
2021/10/02 01:47:59;;;;;;;;;6.25;5.75;;;;;16.19;69.98;100978.06;4981196;28;45199;-68
2021/10/02 01:50:26;;;;;;;;;5.50;5.50;;;;;16.19;69.79;100983.44;4981291;28;45164;-67
2021/10/02 01:52:53;;;;;;;;;6.00;5.00;;;;;15.97;69.98;100946.00;4980880;28;45532;-68
2021/10/02 01:55:23;;;;;;;;;6.50;6.50;;;;;15.91;69.81;100924.78;4960112;28;45422;-68
2021/10/02 01:57:55;;;;;;;;;7.75;6.00;;;;;16.03;70.01;100942.97;4977864;28;45383;-68
2021/10/02 02:00:20;;;;;;;;;7.25;7.25;;;;;16.05;69.70;100951.84;4981012;28;45450;-67
2021/10/02 02:02:50;;;;;;;;;5.25;5.25;;;;;15.87;69.98;100916.00;4980718;28;45421;-68
2021/10/02 02:05:21;;;;;;;;;8.75;6.25;;;;;15.99;69.83;100929.75;4980169;28;45594;-68
2021/10/02 02:07:52;;;;;;;;;6.50;5.00;;;;;16.14;69.94;100953.19;4980537;28;45525;-68
2021/10/02 02:10:19;;;;;;;;;6.25;6.25;;;;;16.08;69.83;100927.44;4969465;28;45429;-68
2021/10/02 02:12:48;;;;;;;;;8.75;6.00;;;;;16.15;70.36;100945.97;4979165;28;47040;-68
2021/10/02 02:15:15;;;;;;;;;5.50;5.50;;;;;16.14;69.65;100942.44;4980995;28;45477;-68
2021/10/02 02:17:44;;;;;;;;;5.75;5.75;;;;;16.20;69.79;100950.16;4980636;28;45258;-68
2021/10/02 02:20:15;;;;;;;;;7.75;6.00;;;;;15.97;70.08;100910.09;4980788;28;45353;-67
2021/10/02 02:22:40;;;;;;;;;6.50;5.75;;;;;15.86;69.58;100895.41;4950315;28;47020;-68
2021/10/02 02:25:06;;;;;;;;;5.00;5.00;;;;;15.93;69.66;100912.97;4980538;28;45303;-68
2021/10/02 02:27:34;;;;;;;;;6.00;6.00;;;;;16.01;69.77;100917.09;4979243;28;45325;-67
2021/10/02 02:30:00;;;;;;;;;6.00;4.00;;;;;16.04;69.86;100908.88;4980754;28;45433;-68
2021/10/02 02:32:26;;;;;;;;;5.00;5.00;;;;;15.98;69.82;100893.03;4980711;28;45496;-68
2021/10/02 02:34:52;;;;;;;;;10.75;8.00;;;;;16.15;69.67;100929.81;4962364;28;45443;-68
2021/10/02 02:37:17;;;;;;;;;9.00;8.00;;;;;15.97;69.66;100900.25;4964799;28;45347;-68
2021/10/02 02:39:43;;;;;;;;;6.75;6.25;;;;;15.80;69.57;100866.09;4944120;28;45596;-68
2021/10/02 02:42:09;;;;;;;;;5.75;5.75;;;;;15.98;69.63;100896.56;4981376;28;46517;-68
2021/10/02 02:44:35;;;;;;;;;6.50;5.00;;;;;16.00;69.76;100894.66;4980294;28;45251;-68
2021/10/02 02:47:05;;;;;;;;;7.00;7.00;;;;;15.92;69.47;100878.03;4980627;28;45445;-68
2021/10/02 02:49:51;;;;;;;;;6.00;6.00;;;;;15.93;69.62;100893.25;4980292;28;45417;-68
2021/10/02 02:52:35;;;;;;;;;7.00;6.00;;;;;16.10;69.66;100916.59;4980406;28;45397;-68
2021/10/02 02:55:04;;;;;;;;;6.25;5.75;;;;;16.10;69.65;100920.19;4967610;28;45315;-67
2021/10/02 02:57:40;;;;;;;;;6.00;5.75;;;;;15.96;69.51;100892.25;4979891;28;45220;-67
2021/10/02 03:00:18;;;;;;;;;6.00;6.00;;;;;15.85;69.68;100871.25;4959533;28;45497;-68
2021/10/02 03:02:52;;;;;;;;;7.00;6.00;;;;;16.03;69.81;100899.03;4977962;28;45515;-67
2021/10/02 03:05:20;;;;;;;;;9.50;6.00;;;;;15.78;70.02;100857.25;4980133;28;45463;-68
2021/10/02 03:07:54;;;;;;;;;8.25;6.00;;;;;15.81;69.76;100865.16;4980061;28;45523;-68
2021/10/02 03:10:20;;;;;;;;;8.00;6.75;;;;;15.72;69.92;100850.34;4968385;28;45531;-68
2021/10/02 03:12:48;;;;;;;;;7.00;5.75;;;;;15.77;69.77;100850.13;4978464;28;45377;-68
2021/10/02 03:15:15;;;;;;;;;7.50;6.00;;;;;16.01;70.21;100880.25;4979825;28;45470;-68
2021/10/02 03:17:46;;;;;;;;;8.25;7.50;;;;;15.85;70.24;100837.13;4979928;28;45215;-68
2021/10/02 03:20:16;;;;;;;;;8.00;6.50;;;;;15.69;70.35;100823.59;4979906;28;45314;-68
2021/10/02 03:22:43;;;;;;;;;7.50;7.50;;;;;15.82;70.22;100850.75;4967621;28;46859;-67
2021/10/02 03:25:12;;;;;;;;;6.50;6.50;;;;;15.97;70.21;100886.78;4962160;28;46091;-68
2021/10/02 03:27:38;;;;;;;;;8.00;8.00;;;;;15.85;70.20;100869.41;4979892;28;45327;-68
2021/10/02 03:30:06;;;;;;;;;9.75;7.00;;;;;15.88;70.12;100876.47;4960595;28;45572;-68
2021/10/02 03:32:32;;;;;;;;;7.50;6.00;;;;;15.81;70.09;100851.69;4979925;28;45251;-68
2021/10/02 03:34:57;;;;;;;;;7.75;7.75;;;;;15.72;70.42;100819.88;4979861;28;45373;-68
2021/10/02 03:37:23;;;;;;;;;7.50;6.50;;;;;15.65;70.33;100797.81;4988365;28;45306;-68
2021/10/02 03:39:48;;;;;;;;;8.00;8.00;;;;;15.71;70.16;100812.75;4979364;28;45568;-68
2021/10/02 03:42:17;;;;;;;;;9.00;9.00;;;;;15.95;70.64;100844.72;4982525;28;46488;-67
2021/10/02 03:44:47;;;;;;;;;7.75;6.75;;;;;15.99;70.30;100848.97;4983119;28;45492;-68
2021/10/02 03:47:14;;;;;;;;;8.00;6.25;;;;;15.81;70.54;100814.03;4983358;28;45286;-68
2021/10/02 03:49:41;;;;;;;;;7.25;6.25;;;;;15.96;70.80;100831.19;4983025;28;45343;-67
2021/10/02 03:52:07;;;;;;;;;7.00;6.50;;;;;15.97;70.38;100830.25;4983285;28;46514;-68
2021/10/02 03:54:33;;;;;;;;;8.00;8.00;;;;;16.00;70.41;100824.66;4982532;28;45278;-68
2021/10/02 03:56:59;;;;;;;;;8.50;8.00;;;;;15.91;70.80;100801.81;4982906;28;45488;-68
2021/10/02 03:59:24;;;;;;;;;9.50;8.50;;;;;15.71;70.40;100767.84;4982550;28;45204;-67
2021/10/02 04:01:50;;;;;;;;;7.75;7.50;;;;;15.74;70.66;100777.59;4983053;28;45326;-68
2021/10/02 04:04:15;;;;;;;;;8.00;8.00;;;;;15.89;70.63;100801.03;4982679;28;45322;-68
2021/10/02 04:06:41;;;;;;;;;9.00;9.00;;;;;15.91;70.59;100807.19;4982943;28;45302;-68
2021/10/02 04:09:06;;;;;;;;;12.00;11.50;;;;;16.01;70.46;100812.09;4963238;28;45295;-68
2021/10/02 04:11:32;;;;;;;;;11.00;10.00;;;;;15.79;70.63;100769.31;4971303;28;45232;-67
2021/10/02 04:13:59;;;;;;;;;11.00;10.25;;;;;16.01;70.49;100790.56;4982463;28;45499;-68
2021/10/02 04:16:25;;;;;;;;;7.75;6.25;;;;;15.92;70.70;100773.94;4982802;28;45402;-68
2021/10/02 04:18:51;;;;;;;;;12.00;9.75;;;;;15.98;70.55;100779.94;4952533;28;45429;-68
2021/10/02 04:21:17;;;;;;;;;9.75;9.75;;;;;16.04;70.45;100782.31;4965131;28;48326;-68
2021/10/02 04:23:42;;;;;;;;;10.50;9.00;;;;;16.02;71.05;100784.19;4982221;28;45420;-68
2021/10/02 04:26:08;;;;;;;;;10.00;9.75;;;;;16.04;70.41;100801.16;4982198;28;45236;-68
2021/10/02 04:28:33;;;;;;;;;10.50;10.00;;;;;16.06;70.85;100799.25;4964668;28;45421;-68
2021/10/02 04:31:02;;;;;;;;;9.25;9.25;;;;;16.17;70.73;100821.09;4982315;28;46321;-68
2021/10/02 04:33:28;;;;;;;;;10.00;9.25;;;;;16.01;70.59;100793.25;4982159;28;45411;-68
2021/10/02 04:35:53;;;;;;;;;8.00;8.00;;;;;15.93;70.80;100772.97;4987638;28;45519;-68
2021/10/02 04:38:19;;;;;;;;;11.00;11.00;;;;;15.96;70.83;100771.09;4986095;28;45435;-68
2021/10/02 04:40:44;;;;;;;;;10.00;8.25;;;;;15.85;70.74;100759.06;4982052;28;45624;-68
2021/10/02 04:43:10;;;;;;;;;12.75;9.00;;;;;15.95;70.68;100780.09;4983296;28;45386;-68
2021/10/02 04:45:35;;;;;;;;;8.75;8.75;;;;;16.06;70.72;100807.31;4982449;28;45348;-68
2021/10/02 04:48:00;;;;;;;;;8.75;8.00;;;;;15.93;70.57;100781.06;4982033;28;45534;-68
2021/10/02 04:50:26;;;;;;;;;6.75;6.75;;;;;16.09;70.56;100785.63;4982235;28;46002;-68
2021/10/02 04:52:54;;;;;;;;;7.50;7.50;;;;;15.86;70.88;100750.03;4980758;28;45485;-68
2021/10/02 04:55:20;;;;;;;;;11.00;11.00;;;;;16.01;70.74;100787.88;4961179;28;45298;-67
2021/10/02 04:57:46;;;;;;;;;9.50;7.50;;;;;16.08;70.98;100805.41;4978267;28;45511;-68
2021/10/02 05:00:12;;;;;;;;;7.25;7.25;;;;;16.09;70.81;100799.94;4981800;28;46160;-67
2021/10/02 05:02:37;;;;;;;;;10.00;8.00;;;;;15.96;71.15;100782.72;4981745;28;45262;-68
2021/10/02 05:05:03;;;;;;;;;10.00;10.00;;;;;15.96;70.82;100785.41;4982109;28;45401;-68
2021/10/02 05:07:28;;;;;;;;;9.00;9.00;;;;;16.06;70.77;100800.09;4981405;28;45592;-68
2021/10/02 05:09:53;;;;;;;;;9.25;9.25;;;;;16.19;70.82;100826.34;4973540;28;45440;-67
2021/10/02 05:12:19;;;;;;;;;9.75;9.75;;;;;16.06;70.80;100812.72;4975330;28;45343;-68
2021/10/02 05:14:44;;;;;;;;;9.50;7.25;;;;;16.11;70.85;100816.03;4981787;28;45774;-67
2021/10/02 05:17:15;;;;;;;;;5.75;5.75;;;;;16.24;70.82;100841.34;4962073;28;45502;-69
2021/10/02 05:19:41;;;;;;;;;9.25;8.75;;;;;16.06;70.77;100791.16;4981624;28;45275;-67
2021/10/02 05:22:06;;;;;;;;;9.00;8.00;;;;;16.29;70.79;100831.19;4981551;28;45164;-68
2021/10/02 05:24:36;;;;;;;;;8.75;8.25;;;;;16.06;70.87;100794.72;4981552;28;45323;-68
2021/10/02 05:27:08;;;;;;;;;8.00;8.00;;;;;16.09;70.75;100773.03;4981345;28;45528;-68
2021/10/02 05:29:38;;;;;;;;;9.25;9.25;;;;;16.20;70.85;100798.47;4981213;28;46362;-68
2021/10/02 05:32:05;;;;;;;;;8.50;7.25;;;;;16.13;70.87;100779.09;4981326;28;45432;-67
2021/10/02 05:34:31;;;;;;;;;8.75;8.75;;;;;15.97;70.75;100738.72;4981657;28;45353;-68
2021/10/02 05:36:57;;;;;;;;;8.00;8.00;;;;;16.03;70.66;100746.41;4990720;28;45492;-68
2021/10/02 05:39:22;;;;;;;;;9.25;9.25;;;;;16.11;71.13;100751.41;4980985;28;45564;-68
2021/10/02 05:41:48;;;;;;;;;8.00;6.00;;;;;16.13;70.95;100751.31;4982491;28;45541;-67
2021/10/02 05:44:13;;;;;;;;;6.75;6.25;;;;;16.15;71.16;100752.94;4981433;28;45359;-68
2021/10/02 05:46:39;;;;;;;;;9.00;8.00;;;;;16.12;70.98;100742.34;4981154;28;45367;-68
2021/10/02 05:49:04;;;;;;;;;6.00;6.00;;;;;16.16;70.98;100735.84;4960280;28;48134;-68
2021/10/02 05:51:30;;;;;;;;;9.00;8.00;;;;;16.13;71.02;100735.16;4979205;28;45453;-68
2021/10/02 05:53:56;;;;;;;;;9.00;8.25;;;;;16.15;71.11;100744.00;4963767;28;45438;-68
2021/10/02 05:56:24;;;;;;;;;7.00;5.50;;;;;16.15;70.85;100741.31;4980588;28;45429;-68
2021/10/02 05:58:50;;;;;;;;;7.00;6.00;;;;;16.24;70.97;100759.66;4980853;28;45433;-67
2021/10/02 06:01:15;;;;;;;;;6.00;4.00;;;;;16.14;71.07;100748.53;4980932;28;45322;-68
2021/10/02 06:03:41;;;;;;;;;6.75;6.75;;;;;16.29;71.06;100787.22;4981064;28;45757;-68
2021/10/02 06:06:06;;;;;;;;;4.75;4.75;;;;;16.29;70.90;100781.81;4980667;28;45235;-68
2021/10/02 06:08:32;;;;;;;;;8.25;5.00;;;;;16.10;70.82;100749.66;4980574;28;46545;-68
2021/10/02 06:10:57;;;;;;;;;4.00;4.00;;;;;16.11;71.19;100746.00;4967503;28;45251;-68
2021/10/02 06:13:23;;;;;;;;;6.00;5.00;;;;;16.20;70.61;100758.09;4960154;28;45520;-68
2021/10/02 06:15:49;;;;;;;;;5.00;5.00;;;;;16.17;70.72;100748.38;4978036;28;45509;-67
2021/10/02 06:18:14;;;;;;;;;4.25;4.00;;;;;16.23;70.67;100755.22;4980705;28;45530;-68
2021/10/02 06:20:40;;;;;;;;;3.25;3.25;;;;;16.24;70.51;100762.38;4980572;28;45411;-68
2021/10/02 06:23:05;;;;;;;;;4.25;4.00;;;;;16.20;70.54;100763.47;4980675;28;45553;-68
2021/10/02 06:25:32;;;;;;;;;4.00;4.00;;;;;16.33;70.40;100788.78;4980383;28;45544;-68
2021/10/02 06:27:57;;;;;;;;;3.00;3.00;;;;;16.01;70.34;100734.00;4980144;28;45331;-68
2021/10/02 06:30:23;;;;;;;;;2.00;2.00;;;;;16.14;70.50;100755.72;4980678;28;45371;-68
2021/10/02 06:32:48;;;;;;;;;2.00;2.00;;;;;16.24;69.92;100763.22;4980691;28;45326;-68
2021/10/02 06:35:14;;;;;;;;;2.50;2.00;;;;;16.04;69.82;100725.78;4980068;28;45490;-68
2021/10/02 06:37:44;;;;;;;;;3.00;2.00;;;;;16.08;70.12;100730.03;4971380;28;45352;-68
2021/10/02 06:40:10;;;;;;;;;3.75;2.25;;;;;15.89;69.93;100709.50;4978289;28;45770;-68
2021/10/02 06:42:36;;;;;;;;;3.50;3.00;;;;;15.89;70.19;100711.34;4980489;28;45417;-68
2021/10/02 06:45:03;;;;;;;;;3.50;3.00;;;;;16.03;70.09;100743.72;4978998;28;45695;-67
2021/10/02 06:47:30;;;;;;;;;6.25;3.00;;;;;16.20;69.87;100775.09;4959464;28;46562;-67
2021/10/02 06:50:00;;;;;;;;;2.25;2.00;;;;;16.03;69.71;100734.78;4979279;28;45259;-68
2021/10/02 06:52:27;;;;;;;;;3.25;3.25;;;;;16.00;69.95;100735.81;4959745;28;45413;-68
2021/10/02 06:54:53;;;;;;;;;5.25;2.25;;;;;16.10;69.71;100763.09;4962223;28;45516;-68
2021/10/02 06:57:19;;;;;;;;;3.00;3.00;;;;;16.07;69.85;100761.47;4979899;28;45274;-68
2021/10/02 06:59:45;;;;;;;;;4.00;3.00;;;;;15.83;69.68;100728.66;4980024;28;45341;-68
2021/10/02 07:02:10;;;;;;;;;3.75;2.50;;;;;15.85;69.70;100732.13;4979488;28;45409;-68
2021/10/02 07:04:38;;;;;;;;;3.00;3.00;;;;;15.97;69.77;100748.59;4978275;28;45513;-68
2021/10/02 07:07:04;;;;;;;;;5.75;2.00;;;;;16.02;69.87;100755.47;4977868;28;45685;-68
2021/10/02 07:09:30;;;;;;;;;4.00;4.00;;;;;15.86;70.02;100719.56;4977909;28;45951;-67
2021/10/02 07:11:56;;;;;;;;;7.50;3.75;;;;;15.85;69.92;100716.00;4979118;28;45595;-66
2021/10/02 07:14:22;;;;;;;;;3.50;2.00;;;;;16.08;69.84;100757.81;4979673;28;45441;-67
2021/10/02 07:17:13;;;;;;;;;4.50;3.25;;;;;15.90;69.54;100742.66;4980902;28;46524;-67
2021/10/02 07:19:43;;;;;;;;;4.50;3.25;;;;;15.91;69.58;100749.78;4973909;28;45815;-68
2021/10/02 07:25:28;;;;;;;;;3.00;3.00;;;;;15.96;69.19;100757.63;4978777;28;45571;-67
2021/10/02 07:27:57;;;;;;;;;9.00;4.00;;;;;15.95;69.56;100763.97;4953383;28;47065;-67
2021/10/02 07:30:35;;;;;;;;;3.50;3.50;;;;;16.02;69.28;100754.56;4946499;28;45406;-68
2021/10/02 07:33:05;;;;;;;;;9.00;4.00;;;;;16.03;69.22;100748.25;4978069;28;45400;-67
2021/10/02 07:35:34;;;;;;;;;5.00;3.00;;;;;15.70;68.96;100690.78;4967243;28;45539;-68
2021/10/02 07:38:20;;;;;;;;;4.00;4.00;;;;;15.70;69.04;100696.16;4968950;28;47720;-68
2021/10/02 07:41:17;;;;;;;;;3.75;3.75;;;;;15.77;69.19;100702.13;4983026;28;45218;-68
2021/10/02 07:44:48;;;;;;;;;;;;;;;;;;;;;
2021/10/02 07:57:47;;;;;;;;;3.00;2.00;;;;;15.68;68.63;100667.59;4950044;28;45493;-66
2021/10/02 08:00:20;;;;;;;;;2.00;2.00;;;;;15.83;68.38;100687.44;4945171;28;47098;-69
2021/10/02 08:02:55;;;;;;;;;3.25;2.25;;;;;15.86;68.40;100698.91;4945740;28;45462;-69
2021/10/02 08:05:31;;;;;;;;;2.00;2.00;;;;;15.90;68.03;100704.97;4961996;28;45351;-69
2021/10/02 08:08:02;;;;;;;;;4.00;2.00;;;;;15.89;67.78;100717.56;4962709;28;45446;-69
2021/10/02 08:11:09;;;;;;;;;6.25;2.00;;;;;15.73;68.17;100687.91;4962664;28;46141;-69
2021/10/02 08:13:42;;;;;;;;;5.25;2.25;;;;;15.64;68.04;100671.41;4952621;28;45210;-69
2021/10/02 08:16:22;;;;;;;;;4.50;2.75;;;;;15.95;67.80;100710.13;4963003;28;45466;-69
2021/10/02 08:19:07;;;;;;;;;;;;;;;;;;;;;
2021/10/02 08:21:39;;;;;;;;;2.00;2.00;;;;;15.84;67.91;100678.41;4951179;28;75620;-69
2021/10/02 08:24:16;;;;;;;;;0.00;0.00;;;;;15.75;67.90;100652.84;4962756;28;45179;-69
2021/10/02 08:26:47;;;;;;;;;3.00;3.00;;;;;15.78;68.14;100663.47;4962717;28;45497;-68
2021/10/02 08:29:15;;;;;;;;;2.75;2.75;;;;;15.69;68.25;100640.59;4962605;28;45394;-69
2021/10/02 08:31:41;;;;;;;;;3.25;3.25;;;;;15.64;68.15;100636.44;4962793;28;46266;-69
2021/10/02 08:34:09;;;;;;;;;2.75;2.75;;;;;15.69;67.62;100634.34;4962573;28;45410;-69
2021/10/02 08:36:40;;;;;;;;;6.25;3.75;;;;;15.78;68.21;100646.47;4973543;28;45458;-69
2021/10/02 08:39:16;;;;;;;;;;;;;;;;;;;;;
2021/10/02 08:41:43;;;;;;;;;5.75;4.00;;;;;15.81;67.74;100651.69;4964709;28;74337;-66
2021/10/02 08:44:16;;;;;;;;;7.50;4.00;;;;;15.96;67.84;100668.78;4962669;28;45766;-67
2021/10/02 08:46:46;;;;;;;;;5.25;4.25;;;;;15.74;68.15;100627.75;4962208;28;45397;-67
2021/10/02 08:49:31;;;;;;;;;4.25;3.25;;;;;15.76;68.33;100611.56;4962488;28;45533;-66
2021/10/02 08:52:01;;;;;;;;;5.25;4.25;;;;;15.86;68.25;100619.97;4962232;28;45367;-70
2021/10/02 08:54:49;;;;;;;;;;;;;;;;;;;;;
2021/10/02 09:01:12;;;;;;;;;;;;;;;;;;;;;
2021/10/02 09:04:07;;;;;;;;;;;;;;;;;;;;;
2021/10/02 09:09:55;;;;;;;;;;;;;;;;;;;;;
2021/10/02 09:12:34;;;;;;;;;;;;;;;;;;;;;
2021/10/02 09:19:04;;;;;;;;;;;;;;;;;;;;;
2021/10/02 09:21:43;;;;;;;;;5.75;5.00;;;;;16.00;68.29;100593.13;4951729;28;67363;-70
2021/10/02 09:24:59;;;;;;;;;;;;;;;;;;;;;
2021/10/02 09:27:36;;;;;;;;;4.50;4.50;;;;;16.05;68.04;100557.88;4944937;28;74231;-73
2021/10/02 09:30:10;;;;;;;;;5.00;4.25;;;;;16.13;68.17;100562.81;4944566;28;45329;-72
2021/10/02 09:32:41;;;;;;;;;5.75;3.50;;;;;16.08;67.46;100541.53;4962126;28;45508;-72
2021/10/02 09:35:17;;;;;;;;;6.00;5.50;;;;;16.15;67.52;100540.22;4961788;28;45280;-69
2021/10/02 09:37:52;;;;;;;;;4.00;4.00;;;;;16.26;67.87;100551.22;4954570;28;45627;-69
2021/10/02 09:40:33;;;;;;;;;3.00;3.00;;;;;16.46;67.95;100571.59;4948652;28;45473;-69
2021/10/02 09:43:26;;;;;;;;;3.00;3.00;;;;;16.33;67.59;100522.09;4960215;28;45813;-69
2021/10/02 09:45:55;;;;;;;;;4.25;4.00;;;;;16.35;67.80;100505.84;4958992;28;45726;-69
2021/10/02 09:48:37;;;;;;;;;3.50;3.00;;;;;16.61;67.27;100533.91;4948237;28;45539;-69
2021/10/02 09:51:27;;;;;;;;;3.00;3.00;;;;;16.48;66.84;100496.06;4961134;28;45547;-69
2021/10/02 09:54:08;;;;;;;;;3.25;3.25;;;;;16.65;66.31;100513.88;4938380;28;45477;-69
2021/10/02 09:57:10;;;;;;;;;4.75;3.00;;;;;16.78;66.22;100530.19;4931497;28;45345;-69
2021/10/02 09:59:55;;;;;;;;;;;;;;;;;;;;;
2021/10/02 10:02:39;;;;;;;;;;;;;;;;;;;;;
2021/10/02 10:05:30;;;;;;;;;3.00;3.00;;;;;16.76;66.19;100453.94;4960585;28;70191;-69
2021/10/02 10:08:12;;;;;;;;;2.00;2.00;;;;;16.76;66.33;100443.16;4960762;28;45525;-69
2021/10/02 10:11:33;;;;;;;;;2.00;2.00;;;;;16.68;65.91;100406.75;4960806;28;45628;-69
2021/10/02 10:14:11;;;;;;;;;;;;;;;;;;;;;
2021/10/02 10:17:08;;;;;;;;;3.00;3.00;;;;;16.98;65.81;100426.53;4960468;28;68856;-69
2021/10/02 10:19:46;;;;;;;;;;;;;;;;;;;;;
2021/10/02 10:22:20;;;;;;;;;3.75;3.00;;;;;17.15;65.61;100438.91;4959992;28;75258;-69
2021/10/02 10:25:37;;;;;;;;;4.00;3.00;;;;;17.02;66.23;100395.69;4960918;28;45347;-69
2021/10/02 10:28:28;;;;;;;;;;;;;;;;;;;;;
2021/10/02 10:31:22;;;;;;;;;3.00;3.00;;;;;17.28;65.44;100393.13;4960127;28;72913;-69
2021/10/02 10:37:18;;;;;;;;;;;;;;;;;;;;;
2021/10/02 10:42:44;;;;;;;;;2.00;2.00;;;;;17.06;63.88;100350.50;4961704;28;45533;-69
2021/10/02 10:49:03;;;;;;;;;2.50;1.75;;;;;17.36;64.24;100388.94;4941115;28;45192;-69
2021/10/02 10:51:27;;;;;;;;;2.75;2.00;;;;;17.16;63.91;100351.66;4950670;28;45709;-70
2021/10/02 10:53:54;;;;;;;;;3.25;3.00;;;;;17.23;63.82;100350.28;4959993;28;45308;-69
2021/10/02 10:56:40;;;;;;;;;1.25;0.50;;;;;17.53;63.61;100387.81;4960091;28;45488;-69
2021/10/02 10:59:05;;;;;;;;;1.50;1.50;;;;;17.52;63.21;100380.69;4958571;28;45558;-69
2021/10/02 11:01:34;;;;;;;;;2.00;2.00;;;;;17.46;63.60;100355.94;4959635;28;45414;-69
2021/10/02 11:04:09;;;;;;;;;2.00;2.00;;;;;17.46;63.33;100346.03;4954735;28;45354;-69
2021/10/02 11:07:00;;;;;;;;;3.00;3.00;;;;;17.61;63.79;100352.22;4960188;28;46148;-69
2021/10/02 11:09:40;;;;;;;;;2.50;2.50;;;;;17.53;63.73;100339.25;4958922;28;45530;-69
2021/10/02 11:12:13;;;;;;;;;3.50;2.75;;;;;17.56;63.61;100330.09;4954113;28;45373;-67
2021/10/02 11:14:47;;;;;;;;;2.75;2.75;;;;;17.71;63.34;100356.03;4963945;28;45480;-66
2021/10/02 11:17:35;;;;;;;;;3.00;3.00;;;;;17.55;63.49;100329.19;4962252;28;45481;-66
2021/10/02 11:20:20;;;;;;;;;2.00;2.00;;;;;17.69;63.14;100341.78;4962110;28;45563;-66
2021/10/02 11:23:27;;;;;;;;;3.50;2.00;;;;;17.69;63.85;100338.19;4948434;28;45380;-67
2021/10/02 11:26:48;;;;;;;;;;;;;;;;;;;;;
2021/10/02 11:29:40;;;;;;;;;2.25;2.25;;;;;17.74;63.94;100330.63;4900891;28;74517;-70
2021/10/02 11:32:33;;;;;;;;;;;;;;;;;;;;;
2021/10/02 11:35:53;;;;;;;;;;;;;;;;;;;;;
2021/10/02 11:55:04;;;;;;;;;;;;;;;;;;;;;
2021/10/02 11:58:11;;;;;;;;;4.50;2.75;;;;;17.66;64.43;100203.44;4975940;28;71997;-71
2021/10/02 12:07:47;;;;;;;;;;;;;;;;;;;;;
2021/10/02 12:14:27;;;;;;;;;1.75;1.75;;;;;17.70;64.09;100156.38;4956452;28;45581;-67
2021/10/02 12:20:43;;;;;;;;;4.25;4.00;;;;;17.93;64.22;100173.66;4963960;28;45568;-69
2021/10/02 12:23:19;;;;;;;;;3.75;3.50;;;;;17.88;64.23;100162.34;4959331;28;45557;-65
2021/10/02 12:26:04;;;;;;;;;7.50;3.75;;;;;17.95;64.12;100164.47;4976518;28;45516;-66
2021/10/02 12:29:34;;;;;;;;;;;;;;;;;;;;;
2021/10/02 12:32:22;;;;;;;;;;;;;;;;;;;;;
2021/10/02 12:42:21;;;;;;;;;;;;;;;;;;;;;
2021/10/02 12:48:43;;;;;;;;;;;;;;;;;;;;;
2021/10/02 12:51:56;;;;;;;;;;;;;;;;;;;;;
2021/10/02 12:55:29;;;;;;;;;1.50;1.50;;;;;18.06;64.36;100150.19;4979788;28;72688;-67
2021/10/02 12:58:27;;;;;;;;;;;;;;;;;;;;;
2021/10/02 13:00:58;;;;;;;;;6.00;3.75;;;;;17.82;63.86;100106.06;4968714;28;71526;-67
2021/10/02 13:03:33;;;;;;;;;2.00;2.00;;;;;17.94;64.06;100102.47;4972306;28;45303;-67
2021/10/02 13:06:40;;;;;;;;;4.75;3.50;;;;;17.94;64.30;100087.16;4950138;28;45229;-68
2021/10/02 13:09:32;;;;;;;;;;;;;;;;;;;;;
2021/10/02 13:12:36;;;;;;;;;;;;;;;;;;;;;
2021/10/02 13:15:46;;;;;;;;;;;;;;;;;;;;;
2021/10/02 13:18:33;;;;;;;;;4.25;4.25;;;;;17.92;64.34;100047.72;4973212;28;72936;-67
2021/10/02 13:21:25;;;;;;;;;3.00;2.75;;;;;17.86;64.59;100032.81;4970747;28;46780;-67
2021/10/02 13:24:06;;;;;;;;;;;;;;;;;;;;;
2021/10/02 13:27:01;;;;;;;;;2.50;2.50;;;;;17.98;65.06;100055.38;4977020;28;68832;-67
2021/10/02 13:29:40;;;;;;;;;3.50;3.00;;;;;17.88;65.01;100025.50;4981380;28;45446;-67
2021/10/02 13:32:47;;;;;;;;;3.00;3.00;;;;;17.91;64.88;100017.19;4963883;28;47678;-67
2021/10/02 13:35:34;;;;;;;;;1.50;1.50;;;;;17.76;65.13;99973.25;4979252;28;45299;-67
2021/10/02 13:38:14;;;;;;;;;2.50;1.50;;;;;17.81;65.21;99986.41;4977396;28;45572;-67
2021/10/02 13:40:58;;;;;;;;;3.00;3.00;;;;;17.94;65.65;100008.84;4980686;28;45254;-67
2021/10/02 13:44:10;;;;;;;;;3.50;2.75;;;;;17.90;65.39;99984.91;4980114;28;45421;-67
2021/10/02 13:47:09;;;;;;;;;;;;;;;;;;;;;
2021/10/02 13:49:51;;;;;;;;;;;;;;;;;;;;;
2021/10/02 13:55:42;;;;;;;;;3.75;3.75;;;;;17.83;66.76;99945.81;4960219;28;47118;-67
2021/10/02 13:58:11;;;;;;;;;2.25;1.50;;;;;17.71;66.61;99926.84;4975611;28;45392;-68
2021/10/02 14:00:38;;;;;;;;;4.75;3.25;;;;;17.90;66.43;99958.75;4979287;28;45439;-68
2021/10/02 14:03:05;;;;;;;;;2.00;2.00;;;;;17.81;66.61;99923.44;4972438;28;45553;-68
2021/10/02 14:05:30;;;;;;;;;6.25;2.50;;;;;17.66;67.14;99890.38;4955280;28;48281;-68
2021/10/02 14:07:56;;;;;;;;;2.75;2.75;;;;;17.83;66.81;99916.97;4980424;28;45326;-68
2021/10/02 14:10:22;;;;;;;;;5.50;3.00;;;;;17.94;67.35;99929.66;4962864;28;45451;-68
2021/10/02 14:12:49;;;;;;;;;2.50;2.50;;;;;17.71;67.43;99891.78;4962953;28;45877;-68
2021/10/02 14:15:15;;;;;;;;;3.50;3.00;;;;;17.82;67.35;99909.00;4979519;28;45378;-68
2021/10/02 14:17:41;;;;;;;;;4.50;3.25;;;;;17.83;67.88;99899.94;4980384;28;45337;-69
2021/10/02 14:20:09;;;;;;;;;3.00;3.00;;;;;17.74;67.96;99891.53;4980505;28;45375;-69
2021/10/02 14:22:38;;;;;;;;;2.75;2.75;;;;;17.86;67.92;99905.94;4970662;28;45436;-68
2021/10/02 14:25:06;;;;;;;;;3.25;3.25;;;;;17.77;68.27;99885.91;4963768;28;48772;-69
2021/10/02 14:27:31;;;;;;;;;3.25;2.50;;;;;17.80;68.31;99867.75;4971196;28;45429;-68
2021/10/02 14:29:57;;;;;;;;;2.25;2.25;;;;;17.75;67.97;99855.47;4963818;28;45422;-68
2021/10/02 14:32:25;;;;;;;;;3.75;3.00;;;;;17.93;68.32;99876.66;4965382;28;45524;-68
2021/10/02 14:34:53;;;;;;;;;4.25;3.25;;;;;17.72;68.57;99841.34;4972498;28;45412;-68
2021/10/02 14:37:19;;;;;;;;;4.00;3.00;;;;;17.64;68.73;99814.09;4974548;28;45515;-68
2021/10/02 14:39:47;;;;;;;;;2.50;2.50;;;;;17.74;68.79;99833.97;4979585;28;45227;-67
2021/10/02 14:42:13;;;;;;;;;3.00;3.00;;;;;17.90;68.95;99856.16;4980451;28;45267;-68
2021/10/02 14:44:49;;;;;;;;;;;;;;;;;;;;;
2021/10/02 14:50:28;;;;;;;;;2.75;2.75;;;;;17.72;69.32;99803.56;4972905;28;45251;-68
2021/10/02 14:52:55;;;;;;;;;3.75;3.75;;;;;17.72;69.54;99806.25;4975116;28;45342;-66
2021/10/02 14:55:21;;;;;;;;;4.25;3.75;;;;;17.85;69.66;99809.72;4979583;28;46425;-65
2021/10/02 14:57:53;;;;;;;;;3.25;3.25;;;;;17.72;69.78;99773.88;4978249;28;45269;-66
2021/10/02 15:00:18;;;;;;;;;2.25;2.25;;;;;17.90;70.09;99806.72;4958805;28;45319;-66
2021/10/02 15:02:44;;;;;;;;;3.75;3.75;;;;;17.57;70.27;99744.41;4979813;28;45729;-66
2021/10/02 15:05:11;;;;;;;;;4.25;4.25;;;;;17.80;70.16;99781.38;4978250;28;46384;-66